createdAt,value
2023-03-06T00:00:27.907Z,7.53
2023-03-06T00:02:56.100Z,6.80
2023-03-06T00:05:25.599Z,7.67
2023-03-06T00:07:54.628Z,8.17
2023-03-06T00:10:24.463Z,8.93
2023-03-06T00:12:55.417Z,9.37
2023-03-06T00:15:24.637Z,8.67
2023-03-06T00:17:54.603Z,9.53
2023-03-06T00:20:23.284Z,10.33
2023-03-06T00:22:51.748Z,8.67
2023-03-06T00:25:21.971Z,9.47
2023-03-06T00:27:51.164Z,10.30
2023-03-06T00:30:23.342Z,9.80
2023-03-06T00:32:51.475Z,10.13
2023-03-06T00:35:19.592Z,10.43
2023-03-06T00:37:47.488Z,10.40
2023-03-06T00:40:18.738Z,10.87
2023-03-06T00:42:47.421Z,10.37
2023-03-06T00:45:16.060Z,10.80
2023-03-06T00:47:45.605Z,11.40
2023-03-06T00:50:13.939Z,10.57
2023-03-06T00:52:42.113Z,10.57
2023-03-06T00:55:11.081Z,11.70
2023-03-06T00:57:38.918Z,10.53
2023-03-06T01:00:08.050Z,9.93
2023-03-06T01:02:36.104Z,11.17
2023-03-06T01:05:06.459Z,10.50
2023-03-06T01:07:36.552Z,10.80
2023-03-06T01:10:05.147Z,10.80
2023-03-06T01:12:32.977Z,11.10
2023-03-06T01:15:01.058Z,10.47
2023-03-06T01:17:28.819Z,10.70
2023-03-06T01:19:56.470Z,10.00
2023-03-06T01:22:25.836Z,10.10
2023-03-06T01:24:54.430Z,10.37
2023-03-06T01:27:22.329Z,10.40
2023-03-06T01:29:50.015Z,10.73
2023-03-06T01:32:17.941Z,10.57
2023-03-06T01:34:45.963Z,10.67
2023-03-06T01:37:13.905Z,9.87
2023-03-06T01:39:43.791Z,9.60
2023-03-06T01:42:11.782Z,9.57
2023-03-06T01:45:05.407Z,10.07
2023-03-06T01:47:33.832Z,9.77
2023-03-06T01:50:04.497Z,9.97
2023-03-06T01:52:36.598Z,10.33
2023-03-06T01:55:11.474Z,10.60
2023-03-06T01:57:42.978Z,9.67
2023-03-06T02:00:13.656Z,10.13
2023-03-06T02:02:43.321Z,10.17
2023-03-06T02:05:12.272Z,9.50
2023-03-06T02:07:42.142Z,10.33
2023-03-06T02:10:12.662Z,10.13
2023-03-06T02:12:42.673Z,9.87
2023-03-06T02:15:11.208Z,10.30
2023-03-06T02:17:39.186Z,9.83
2023-03-06T02:20:15.709Z,10.73
2023-03-06T02:22:49.694Z,10.77
2023-03-06T02:25:34.018Z,9.07
2023-03-06T02:28:03.883Z,9.47
2023-03-06T02:30:33.379Z,10.83
2023-03-06T02:33:01.335Z,9.87
2023-03-06T02:35:31.714Z,10.10
2023-03-06T02:38:03.861Z,9.50
2023-03-06T02:40:33.402Z,9.90
2023-03-06T02:43:01.661Z,10.80
2023-03-06T02:45:35.224Z,9.77
2023-03-06T02:48:03.668Z,9.77
2023-03-06T02:50:31.897Z,9.80
2023-03-06T02:53:00.590Z,9.57
2023-03-06T02:55:29.348Z,9.40
2023-03-06T02:57:58.908Z,10.00
2023-03-06T03:00:27.212Z,9.83
2023-03-06T03:02:55.287Z,9.50
2023-03-06T03:05:23.278Z,9.47
2023-03-06T03:07:51.091Z,9.53
2023-03-06T03:10:19.009Z,8.70
2023-03-06T03:12:46.834Z,8.70
2023-03-06T03:15:16.326Z,8.53
2023-03-06T03:17:44.322Z,8.57
2023-03-06T03:20:14.871Z,9.07
2023-03-06T03:22:42.758Z,8.73
2023-03-06T03:25:11.073Z,8.37
2023-03-06T03:27:38.865Z,8.60
2023-03-06T03:30:07.886Z,8.17
2023-03-06T03:32:38.233Z,8.60
2023-03-06T03:35:07.149Z,7.93
2023-03-06T03:37:35.282Z,7.67
2023-03-06T03:40:03.730Z,8.30
2023-03-06T03:42:31.783Z,8.83
2023-03-06T03:44:59.780Z,8.40
2023-03-06T03:47:29.065Z,8.23
2023-03-06T03:49:58.463Z,8.43
2023-03-06T03:52:26.557Z,8.00
2023-03-06T03:54:54.270Z,7.33
2023-03-06T03:57:22.507Z,7.80
2023-03-06T03:59:50.586Z,8.27
2023-03-06T04:02:22.806Z,7.93
2023-03-06T04:04:51.393Z,7.10
2023-03-06T04:07:21.176Z,7.07
2023-03-06T04:09:50.605Z,7.37
2023-03-06T04:12:18.532Z,7.23
2023-03-06T04:14:46.403Z,7.30
2023-03-06T04:17:14.140Z,7.03
2023-03-06T04:19:41.906Z,7.83
2023-03-06T04:22:09.633Z,7.07
2023-03-06T04:24:39.265Z,7.40
2023-03-06T04:27:07.413Z,7.40
2023-03-06T04:29:35.381Z,6.67
2023-03-06T04:32:03.609Z,7.10
2023-03-06T04:34:31.319Z,7.20
2023-03-06T04:36:59.055Z,7.70
2023-03-06T04:39:26.774Z,7.57
2023-03-06T04:41:56.194Z,7.67
2023-03-06T04:44:24.031Z,7.63
2023-03-06T04:46:52.204Z,8.57
2023-03-06T04:49:21.150Z,7.87
2023-03-06T04:51:49.098Z,7.67
2023-03-06T04:54:18.941Z,7.83
2023-03-06T04:56:47.036Z,7.27
2023-03-06T04:59:16.404Z,8.40
2023-03-06T05:01:44.357Z,7.90
2023-03-06T05:04:13.429Z,7.63
2023-03-06T05:06:41.433Z,7.13
2023-03-06T05:09:09.245Z,7.27
2023-03-06T05:11:36.923Z,6.50
2023-03-06T05:14:04.991Z,6.83
2023-03-06T05:16:34.442Z,6.50
2023-03-06T05:19:02.290Z,6.63
2023-03-06T05:21:30.029Z,6.33
2023-03-06T05:23:58.340Z,6.67
2023-03-06T05:26:26.232Z,6.43
2023-03-06T05:28:55.400Z,6.70
2023-03-06T05:31:23.376Z,6.63
2023-03-06T05:33:52.714Z,6.73
2023-03-06T05:36:20.571Z,7.40
2023-03-06T05:38:48.270Z,7.17
2023-03-06T05:41:15.999Z,7.37
2023-03-06T05:43:43.751Z,6.93
2023-03-06T05:46:12.498Z,7.07
2023-03-06T05:48:40.595Z,6.93
2023-03-06T05:51:11.069Z,7.17
2023-03-06T05:53:38.759Z,6.10
2023-03-06T05:56:09.924Z,6.70
2023-03-06T05:58:38.424Z,6.70
2023-03-06T06:01:11.238Z,6.67
2023-03-06T06:03:39.966Z,6.40
2023-03-06T06:06:10.895Z,6.63
2023-03-06T06:08:39.263Z,7.07
2023-03-06T06:11:08.307Z,6.67
2023-03-06T06:13:38.182Z,7.33
2023-03-06T06:16:11.515Z,7.77
2023-03-06T06:18:41.247Z,8.13
2023-03-06T06:21:14.412Z,8.47
2023-03-06T06:23:43.458Z,7.90
2023-03-06T06:26:12.493Z,8.73
2023-03-06T06:28:40.188Z,8.10
2023-03-06T06:31:12.957Z,7.83
2023-03-06T06:33:42.047Z,8.00
2023-03-06T06:36:18.882Z,7.53
2023-03-06T06:38:47.134Z,7.93
2023-03-06T06:41:50.633Z,7.27
2023-03-06T06:44:08.558Z,7.67
2023-03-06T06:47:20.855Z,8.57
2023-03-06T06:49:24.715Z,7.67
2023-03-06T06:51:54.080Z,7.77
2023-03-06T06:54:22.377Z,7.50
2023-03-06T06:56:50.347Z,8.33
2023-03-06T06:59:18.157Z,8.20
2023-03-06T07:01:46.727Z,7.97
2023-03-06T07:04:14.825Z,8.73
2023-03-06T07:06:43.099Z,9.63
2023-03-06T07:09:13.894Z,9.30
2023-03-06T07:11:43.376Z,8.57
2023-03-06T07:14:11.952Z,9.57
2023-03-06T07:16:40.857Z,8.60
2023-03-06T07:19:08.713Z,9.60
2023-03-06T07:21:37.949Z,7.00
2023-03-06T07:24:06.091Z,7.70
2023-03-06T07:26:35.636Z,7.10
2023-03-06T07:29:05.473Z,7.83
2023-03-06T07:31:34.877Z,7.40
2023-03-06T07:34:04.891Z,7.67
2023-03-06T07:36:33.455Z,8.40
2023-03-06T07:39:01.501Z,8.60
2023-03-06T07:41:29.598Z,9.30
2023-03-06T07:43:58.974Z,8.77
2023-03-06T07:46:27.012Z,7.70
2023-03-06T07:48:55.478Z,7.20
2023-03-06T07:51:24.149Z,7.33
2023-03-06T07:53:53.252Z,7.17
2023-03-06T07:56:21.767Z,6.57
2023-03-06T07:58:50.030Z,6.87
2023-03-06T08:01:20.887Z,6.53
2023-03-06T08:03:50.211Z,5.83
2023-03-06T08:06:19.806Z,5.83
2023-03-06T08:08:49.045Z,6.10
2023-03-06T08:11:19.025Z,5.70
2023-03-06T08:13:48.782Z,5.60
2023-03-06T08:16:17.467Z,5.67
2023-03-06T08:18:46.799Z,6.40
2023-03-06T08:21:16.847Z,6.43
2023-03-06T08:23:46.241Z,6.63
2023-03-06T08:26:15.725Z,6.53
2023-03-06T08:28:44.439Z,6.67
2023-03-06T08:31:14.579Z,6.20
2023-03-06T08:33:43.373Z,6.60
2023-03-06T08:36:12.843Z,7.43
2023-03-06T08:38:40.706Z,7.13
2023-03-06T08:41:09.040Z,7.90
2023-03-06T08:43:36.908Z,8.10
2023-03-06T08:46:04.947Z,7.30
2023-03-06T08:48:32.976Z,7.97
2023-03-06T08:51:00.994Z,7.27
2023-03-06T08:53:42.737Z,7.37
2023-03-06T08:56:16.911Z,7.73
2023-03-06T08:58:46.044Z,6.90
2023-03-06T09:01:16.065Z,7.80
2023-03-06T09:03:44.025Z,8.30
2023-03-06T09:06:12.087Z,8.10
2023-03-06T09:08:43.184Z,7.87
2023-03-06T09:11:13.919Z,9.03
2023-03-06T09:13:42.512Z,7.77
2023-03-06T09:16:12.339Z,7.57
2023-03-06T09:18:40.673Z,7.60
2023-03-06T09:21:11.556Z,8.10
2023-03-06T09:23:41.696Z,7.73
2023-03-06T09:26:09.703Z,8.37
2023-03-06T09:28:39.237Z,8.77
2023-03-06T09:31:10.340Z,8.33
2023-03-06T09:33:38.525Z,7.20
2023-03-06T09:36:08.260Z,6.77
2023-03-06T09:38:36.252Z,7.40
2023-03-06T09:41:16.639Z,7.23
2023-03-06T09:43:48.078Z,6.77
2023-03-06T09:46:24.041Z,7.07
2023-03-06T09:49:10.298Z,6.90
2023-03-06T09:51:51.577Z,6.47
2023-03-06T09:54:27.846Z,6.70
2023-03-06T09:56:57.526Z,6.70
2023-03-06T09:59:27.571Z,7.27
2023-03-06T10:02:01.665Z,7.10
2023-03-06T10:04:36.528Z,7.20
2023-03-06T10:07:13.626Z,7.20
2023-03-06T10:09:49.442Z,7.47
2023-03-06T10:12:24.873Z,7.53
2023-03-06T10:15:10.694Z,7.30
2023-03-06T10:17:41.452Z,6.10
2023-03-06T10:20:21.224Z,6.10
2023-03-06T10:23:05.563Z,6.40
2023-03-06T10:25:39.617Z,5.40
2023-03-06T10:28:17.080Z,5.07
2023-03-06T10:30:52.790Z,5.57
2023-03-06T10:33:34.740Z,5.50
2023-03-06T10:36:06.077Z,5.83
2023-03-06T10:38:38.569Z,4.47
2023-03-06T10:41:09.162Z,4.53
2023-03-06T10:43:40.210Z,4.00
2023-03-06T10:46:09.227Z,3.50
2023-03-06T10:48:41.010Z,3.83
2023-03-06T10:51:19.592Z,3.27
2023-03-06T10:53:54.640Z,3.60
2023-03-06T10:56:31.913Z,2.90
2023-03-06T10:59:09.759Z,3.60
2023-03-06T11:01:37.658Z,3.50
2023-03-06T11:04:18.003Z,3.00
2023-03-06T11:06:46.040Z,3.70
2023-03-06T11:09:21.782Z,5.10
2023-03-06T11:11:50.087Z,5.47
2023-03-06T11:14:23.168Z,4.10
2023-03-06T11:16:53.665Z,2.53
2023-03-06T11:19:27.007Z,3.87
2023-03-06T11:22:02.786Z,4.60
2023-03-06T11:24:39.676Z,2.63
2023-03-06T11:27:22.242Z,2.30
2023-03-06T11:29:57.453Z,2.60
2023-03-06T11:32:28.601Z,3.30
2023-03-06T11:35:00.767Z,2.40
2023-03-06T11:37:41.776Z,2.30
2023-03-06T11:40:18.511Z,4.23
2023-03-06T11:42:54.146Z,2.60
2023-03-06T11:45:32.773Z,2.37
2023-03-06T11:48:07.061Z,2.10
2023-03-06T11:50:37.053Z,3.97
2023-03-06T11:53:07.837Z,13.50
2023-03-06T11:55:44.846Z,6.40
2023-03-06T11:58:43.395Z,2.70
2023-03-06T12:01:23.684Z,2.37
2023-03-06T12:04:02.023Z,2.30
2023-03-06T12:06:38.882Z,4.20
2023-03-06T12:09:25.970Z,2.40
2023-03-06T12:12:19.610Z,1.90
2023-03-06T12:15:00.368Z,1.90
2023-03-06T12:17:42.898Z,2.73
2023-03-06T12:20:28.972Z,3.47
2023-03-06T12:23:15.023Z,2.10
2023-03-06T12:25:45.614Z,2.07
2023-03-06T12:28:50.434Z,2.20
2023-03-06T12:31:31.815Z,3.00
2023-03-06T12:34:22.233Z,2.17
2023-03-06T12:37:01.470Z,2.20
2023-03-06T12:39:40.298Z,2.37
2023-03-06T12:42:26.796Z,2.10
2023-03-06T12:45:15.382Z,3.90
2023-03-06T12:47:45.832Z,3.17
2023-03-06T12:50:25.416Z,2.60
2023-03-06T12:52:55.156Z,2.97
2023-03-06T12:55:25.797Z,3.40
2023-03-06T12:57:54.510Z,2.93
2023-03-06T13:01:04.527Z,3.10
2023-03-06T13:03:40.075Z,2.70
2023-03-06T13:06:26.552Z,3.00
2023-03-06T13:09:12.169Z,2.10
2023-03-06T13:12:16.918Z,2.10
2023-03-06T13:14:55.214Z,2.37
2023-03-06T13:17:44.424Z,1.90
2023-03-06T13:20:29.295Z,2.30
2023-03-06T13:22:58.918Z,2.30
2023-03-06T13:25:49.996Z,2.23
2023-03-06T13:28:45.102Z,2.23
2023-03-06T13:31:26.452Z,2.97
2023-03-06T13:34:00.197Z,2.53
2023-03-06T13:36:31.701Z,2.70
2023-03-06T13:39:03.171Z,2.90
2023-03-06T13:42:00.174Z,2.30
2023-03-06T13:44:43.307Z,1.73
2023-03-06T13:47:29.104Z,2.20
2023-03-06T13:49:58.198Z,3.50
2023-03-06T13:52:36.689Z,2.13
2023-03-06T13:55:17.571Z,1.80
2023-03-06T13:58:02.643Z,1.90
2023-03-06T14:00:48.181Z,3.70
2023-03-06T14:03:29.679Z,1.80
2023-03-06T14:05:58.911Z,1.67
2023-03-06T14:08:29.738Z,1.70
2023-03-06T14:11:04.421Z,1.90
2023-03-06T14:13:46.540Z,5.53
2023-03-06T14:16:20.480Z,3.23
2023-03-06T14:18:51.264Z,1.30
2023-03-06T14:21:27.675Z,1.10
2023-03-06T14:24:00.977Z,1.20
2023-03-06T14:26:33.885Z,1.30
2023-03-06T14:29:03.027Z,1.30
2023-03-06T14:31:35.800Z,1.40
2023-03-06T14:34:06.363Z,1.20
2023-03-06T14:36:37.368Z,1.70
2023-03-06T14:39:11.573Z,1.50
2023-03-06T14:41:40.972Z,1.77
2023-03-06T14:44:10.473Z,1.70
2023-03-06T14:46:38.732Z,2.30
2023-03-06T14:49:08.024Z,2.17
2023-03-06T14:51:42.145Z,1.70
2023-03-06T14:54:15.662Z,1.67
2023-03-06T14:56:48.265Z,2.47
2023-03-06T14:59:21.585Z,2.20
2023-03-06T15:01:52.392Z,1.90
2023-03-06T15:04:27.424Z,1.37
2023-03-06T15:06:56.944Z,2.77
2023-03-06T15:09:30.838Z,4.87
2023-03-06T15:12:03.611Z,2.03
2023-03-06T15:14:34.943Z,1.60
2023-03-06T15:17:33.586Z,1.60
2023-03-06T15:20:01.974Z,1.83
2023-03-06T15:22:33.386Z,1.83
2023-03-06T15:25:21.898Z,1.50
2023-03-06T15:27:53.162Z,1.60
2023-03-06T15:30:27.699Z,1.70
2023-03-06T15:33:10.784Z,1.77
2023-03-06T15:35:39.415Z,1.90
2023-03-06T15:38:25.609Z,2.23
2023-03-06T15:40:58.214Z,1.80
2023-03-06T15:43:29.607Z,2.30
2023-03-06T15:45:59.866Z,1.93
2023-03-06T15:48:28.934Z,2.20
2023-03-06T15:50:56.686Z,4.30
2023-03-06T15:53:24.442Z,3.90
2023-03-06T15:55:53.986Z,2.90
2023-03-06T15:58:26.879Z,2.53
2023-03-06T16:00:56.858Z,2.40
2023-03-06T16:03:24.633Z,2.20
2023-03-06T16:05:53.633Z,2.43
2023-03-06T16:08:21.421Z,2.60
2023-03-06T16:10:51.354Z,2.50
2023-03-06T16:13:26.319Z,2.50
2023-03-06T16:15:54.711Z,3.23
2023-03-06T16:18:24.336Z,3.10
2023-03-06T16:20:52.383Z,2.83
2023-03-06T16:23:20.262Z,3.53
2023-03-06T16:25:50.571Z,3.27
2023-03-06T16:28:21.322Z,4.80
2023-03-06T16:30:49.304Z,4.10
2023-03-06T16:33:18.727Z,2.60
2023-03-06T16:35:48.389Z,2.40
2023-03-06T16:38:16.786Z,2.23
2023-03-06T16:40:45.086Z,2.37
2023-03-06T16:43:16.171Z,2.43
2023-03-06T16:45:44.788Z,2.50
2023-03-06T16:48:17.254Z,2.50
2023-03-06T16:50:47.300Z,2.37
2023-03-06T16:53:16.085Z,2.63
2023-03-06T16:55:44.267Z,3.47
2023-03-06T16:58:12.358Z,3.03
2023-03-06T17:00:40.371Z,3.10
2023-03-06T17:03:08.400Z,2.70
2023-03-06T17:05:38.044Z,2.60
2023-03-06T17:08:07.517Z,2.83
2023-03-06T17:10:35.420Z,3.30
2023-03-06T17:13:03.388Z,3.60
2023-03-06T17:15:31.186Z,3.43
2023-03-06T17:17:59.370Z,3.20
2023-03-06T17:20:27.098Z,3.27
2023-03-06T17:22:55.039Z,3.50
2023-03-06T17:25:25.087Z,3.80
2023-03-06T17:27:52.912Z,3.63
2023-03-06T17:30:20.692Z,4.13
2023-03-06T17:32:49.301Z,4.30
2023-03-06T17:35:17.505Z,4.10
2023-03-06T17:37:45.409Z,3.90
2023-03-06T17:40:15.629Z,4.10
2023-03-06T17:42:44.765Z,4.00
2023-03-06T17:45:12.970Z,3.93
2023-03-06T17:47:40.728Z,4.03
2023-03-06T17:50:09.282Z,3.93
2023-03-06T17:52:37.684Z,3.80
2023-03-06T17:55:07.041Z,15.23
2023-03-06T17:57:34.942Z,6.77
2023-03-06T18:00:05.986Z,5.27
2023-03-06T18:02:34.071Z,4.43
2023-03-06T18:05:02.383Z,4.67
2023-03-06T18:07:30.127Z,4.80
2023-03-06T18:09:58.028Z,4.57
2023-03-06T18:12:25.861Z,4.97
2023-03-06T18:14:53.629Z,5.50
2023-03-06T18:17:22.951Z,5.77
2023-03-06T18:19:51.937Z,5.93
2023-03-06T18:22:20.010Z,5.87
2023-03-06T18:24:47.792Z,5.50
2023-03-06T18:27:15.792Z,5.47
2023-03-06T18:29:43.416Z,5.30
2023-03-06T18:32:11.210Z,5.90
2023-03-06T18:34:40.609Z,6.47
2023-03-06T18:37:08.885Z,5.80
2023-03-06T18:39:37.829Z,6.03
2023-03-06T18:42:06.130Z,6.03
2023-03-06T18:44:34.132Z,6.73
2023-03-06T18:47:01.889Z,6.77
2023-03-06T18:49:29.958Z,6.37
2023-03-06T18:51:59.256Z,7.13
2023-03-06T18:54:28.759Z,7.97
2023-03-06T18:56:56.601Z,7.67
2023-03-06T18:59:24.439Z,7.73
2023-03-06T19:01:57.603Z,7.13
2023-03-06T19:04:26.812Z,9.47
2023-03-06T19:06:55.433Z,14.50
2023-03-06T19:09:24.857Z,9.07
2023-03-06T19:11:54.746Z,8.60
2023-03-06T19:14:24.395Z,8.77
2023-03-06T19:16:52.412Z,8.67
2023-03-06T19:19:20.468Z,8.80
2023-03-06T19:21:48.306Z,8.47
2023-03-06T19:24:16.026Z,9.30
2023-03-06T19:26:45.530Z,9.80
2023-03-06T19:29:13.207Z,10.23
2023-03-06T19:31:40.995Z,11.03
2023-03-06T19:34:08.764Z,10.80
2023-03-06T19:36:38.888Z,10.87
2023-03-06T19:39:08.216Z,12.10
2023-03-06T19:41:36.381Z,11.77
2023-03-06T19:44:06.475Z,11.30
2023-03-06T19:46:36.253Z,12.63
2023-03-06T19:49:11.613Z,12.67
2023-03-06T19:51:40.241Z,12.60
2023-03-06T19:54:08.051Z,12.30
2023-03-06T19:56:35.838Z,12.83
2023-03-06T19:59:05.547Z,12.57
2023-03-06T20:01:34.409Z,13.50
2023-03-06T20:04:03.368Z,12.50
2023-03-06T20:06:34.865Z,12.67
2023-03-06T20:09:03.366Z,12.17
2023-03-06T20:11:31.596Z,12.63
2023-03-06T20:14:02.378Z,12.20
2023-03-06T20:16:32.600Z,11.77
2023-03-06T20:19:01.850Z,11.67
2023-03-06T20:21:31.458Z,12.53
2023-03-06T20:24:00.613Z,11.97
2023-03-06T20:26:30.157Z,11.93
2023-03-06T20:28:59.752Z,11.90
2023-03-06T20:31:30.147Z,11.83
2023-03-06T20:34:00.561Z,11.70
2023-03-06T20:36:30.423Z,12.00
2023-03-06T20:39:02.430Z,11.87
2023-03-06T20:41:31.734Z,11.73
2023-03-06T20:44:00.083Z,12.17
2023-03-06T20:46:28.445Z,13.47
2023-03-06T20:49:00.722Z,13.00
2023-03-06T20:51:31.521Z,12.63
2023-03-06T20:54:01.523Z,12.90
2023-03-06T20:56:31.861Z,13.90
2023-03-06T20:59:00.138Z,13.23
2023-03-06T21:01:30.140Z,13.93
2023-03-06T21:04:01.812Z,13.67
2023-03-06T21:06:30.767Z,13.40
2023-03-06T21:08:59.757Z,14.77
2023-03-06T21:11:27.998Z,14.50
2023-03-06T21:13:56.579Z,13.93
2023-03-06T21:16:26.045Z,14.93
2023-03-06T21:18:56.380Z,14.30
2023-03-06T21:21:27.246Z,14.10
2023-03-06T21:23:55.632Z,13.97
2023-03-06T21:26:24.918Z,14.80
2023-03-06T21:28:52.851Z,14.83
2023-03-06T21:31:22.277Z,14.90
2023-03-06T21:33:52.073Z,14.53
2023-03-06T21:36:21.861Z,15.23
2023-03-06T21:38:53.080Z,14.20
2023-03-06T21:41:24.730Z,13.90
2023-03-06T21:43:55.352Z,14.50
2023-03-06T21:46:24.140Z,15.23
2023-03-06T21:48:51.782Z,14.13
2023-03-06T21:51:21.202Z,14.10
2023-03-06T21:53:49.971Z,13.70
2023-03-06T21:56:22.257Z,13.97
2023-03-06T21:58:49.927Z,13.70
2023-03-06T22:01:20.349Z,13.90
2023-03-06T22:03:48.493Z,13.03
2023-03-06T22:06:18.321Z,13.23
2023-03-06T22:08:46.771Z,12.70
2023-03-06T22:11:16.002Z,12.53
2023-03-06T22:13:46.520Z,12.63
2023-03-06T22:16:16.162Z,12.57
2023-03-06T22:18:46.102Z,12.40
2023-03-06T22:21:16.717Z,11.40
2023-03-06T22:23:44.961Z,11.83
2023-03-06T22:26:15.421Z,11.43
2023-03-06T22:28:44.980Z,11.57
2023-03-06T22:31:15.001Z,11.63
2023-03-06T22:33:42.933Z,11.53
2023-03-06T22:36:13.107Z,10.90
2023-03-06T22:38:42.739Z,11.47
2023-03-06T22:41:11.848Z,11.97
2023-03-06T22:43:40.343Z,11.07
2023-03-06T22:46:12.097Z,11.13
2023-03-06T22:48:40.049Z,10.67
2023-03-06T22:51:09.401Z,9.97
2023-03-06T22:53:42.058Z,10.70
2023-03-06T22:56:13.382Z,10.97
2023-03-06T22:58:41.430Z,10.70
2023-03-06T23:01:12.633Z,10.37
2023-03-06T23:03:42.328Z,9.90
2023-03-06T23:06:12.218Z,9.87
2023-03-06T23:08:40.234Z,10.10
2023-03-06T23:11:10.519Z,10.60
2023-03-06T23:13:38.534Z,10.57
2023-03-06T23:16:07.604Z,10.10
2023-03-06T23:18:38.284Z,10.57
2023-03-06T23:21:07.813Z,9.73
2023-03-06T23:23:35.889Z,9.90
2023-03-06T23:26:03.881Z,10.97
2023-03-06T23:28:32.715Z,10.33
2023-03-06T23:31:00.482Z,10.67
2023-03-06T23:33:28.633Z,10.20
2023-03-06T23:36:02.536Z,11.27
2023-03-06T23:38:30.582Z,10.83
2023-03-06T23:41:03.089Z,10.60
2023-03-06T23:43:30.970Z,11.33
2023-03-06T23:45:59.331Z,10.93
2023-03-06T23:48:27.810Z,10.50
2023-03-06T23:50:57.304Z,10.87
2023-03-06T23:53:25.897Z,10.57
2023-03-06T23:55:54.043Z,10.53
2023-03-06T23:58:21.858Z,10.67
